Hamburg, Illinois
Current Conditions -  °F | °C
As of 11:54 AM on Thursday 23 Oct 2014 (Local Time) from KSET Reporting Station
Clear Clear  
Wind Chill: 59°   Ceiling: Unl
Heat Index: 59°   Visibility: 10mi
Dew Point: 44°   Wind: 8mph
Humidity: 58%   Direction: 190°S
Pressure: 30.19"   Gusts: NA
Location:  39.23°N, 90.72°W
Report Text: KSET 231654Z AUTO 19007KT 10SM CLR 15/07 A3019 RMK AO2 SLP223 T01500067 $
Loading
Personal Weather Stations






























Interactive Weather Map
Tropical Storm Tracking
New forecast layout! Learn more

10-Day Weather Forecast

Advertisements
Track Severe Weather on mobile